Storoen, Sweden

7:11 AM CEST on August 31, 2015 (GMT +0200)
INORRBOT5 | | Change Station
CLOSE
Current Station
Personal Weather Station
Location: Karlsborg, NORRBOTTEN
Elevation: 56 ft
Nearby Weather Stations

Elev 56 ft 65.80 °N, 23.30 °E | Updated 12 seconds ago

Clear
Clear
51.1 °F
Feels Like 51.1 °F
N
8.9
Wind Variable Wind from West

Today
High -- | Low -- °F
--% Chance of Precip.
Yesterday
High -- | Low -- °F
Precip. -- in
4:59 AM 7:54 PM
Full, 97% visible
Pressure 29.92 in
Visibility -9999.0 miles
Clouds
Dew Point 46 °F
Humidity 81%
Rainfall Not available.
Snow Depth Not available.
UV Not available.
Pollen Not available.
Air Quality Not available.
Flu Activity Not available.
METAR ESPA 310450Z 27004KT CAVOK 10/07 Q1013
Pressure 29.92 in
Visibility -9999.0 miles
Clouds
Dew Point 46 °F
Humidity 81%
Rainfall Not available.
Snow Depth Not available.
UV Not available.
Pollen Not available.
Air Quality Not available.
Flu Activity Not available.
METAR ESPA 310450Z 27004KT CAVOK 10/07 Q1013

10-Day Weather Forecast

×

Almanac

Astronomy

Aug. 31, 2015 Rise Set
Actual Time
Civil Twilight
Nautical Twilight
Astronomical Twilight
Moon
Length of Visible Light
Length of Day
Tomorrow will be .
, % of the Moon is Illuminated

Today's Extremes

Country Highs Country Lows

Community

WunderPhotos

Upload Photos

1,851,211 photos uploaded!

WunderBlogs® & News

Nearby

Air Quality

  Air Quality AQ Index Pollutant
Not available.

Snow Depth

Station Depth Elevation

Earthquake Activity

City Distance Mag. Time & Date
Minimum magnitude displayed is 2.5.

Coastal Water Temperatures

Place Temperature

Stations

Nearby Weather Stations

Station Location Temp. Windchill Dew Point Humidity Wind Precip. Elev Updated Type